createdAt,value
2018-09-11T00:00:05.619Z,1012.54
2018-09-11T00:01:05.638Z,1012.59
2018-09-11T00:02:05.643Z,1012.60
2018-09-11T00:03:05.663Z,1012.60
2018-09-11T00:04:05.699Z,1012.61
2018-09-11T00:05:05.704Z,1012.63
2018-09-11T00:06:05.743Z,1012.64
2018-09-11T00:07:05.755Z,1012.66
2018-09-11T00:08:05.764Z,1012.66
2018-09-11T00:09:05.770Z,1012.69
2018-09-11T00:10:05.804Z,1012.66
2018-09-11T00:11:05.837Z,1012.67
2018-09-11T00:12:05.853Z,1012.69
2018-09-11T00:13:05.878Z,1012.68
2018-09-11T00:14:05.919Z,1012.72
2018-09-11T00:15:05.903Z,1012.72
2018-09-11T00:16:05.938Z,1012.69
2018-09-11T00:17:05.958Z,1012.69
2018-09-11T00:18:05.965Z,1012.72
2018-09-11T00:19:05.992Z,1012.71
2018-09-11T00:20:06.018Z,1012.70
2018-09-11T00:21:06.043Z,1012.71
2018-09-11T00:22:06.032Z,1012.72
2018-09-11T00:23:06.065Z,1012.74
2018-09-11T00:24:06.098Z,1012.71
2018-09-11T00:25:06.107Z,1012.75
2018-09-11T00:26:06.129Z,1012.74
2018-09-11T00:27:06.146Z,1012.72
2018-09-11T00:28:06.169Z,1012.75
2018-09-11T00:29:06.206Z,1012.76
2018-09-11T00:30:06.238Z,1012.75
2018-09-11T00:31:06.227Z,1012.73
2018-09-11T00:32:06.260Z,1012.71
2018-09-11T00:33:06.284Z,1012.75
2018-09-11T00:34:06.305Z,1012.72
2018-09-11T00:35:06.308Z,1012.72
2018-09-11T00:36:06.329Z,1012.75
2018-09-11T00:37:06.363Z,1012.74
2018-09-11T00:38:06.382Z,1012.77
2018-09-11T00:39:06.390Z,1012.74
2018-09-11T00:40:06.411Z,1012.77
2018-09-11T00:41:06.419Z,1012.73
2018-09-11T00:42:06.452Z,1012.75
2018-09-11T00:43:06.471Z,1012.75
2018-09-11T00:44:06.521Z,1012.78
2018-09-11T00:45:06.528Z,1012.75
2018-09-11T00:46:06.532Z,1012.79
2018-09-11T00:47:06.555Z,1012.77
2018-09-11T00:48:06.578Z,1012.75
2018-09-11T00:49:06.596Z,1012.75
2018-09-11T00:50:06.617Z,1012.76
2018-09-11T00:51:06.637Z,1012.75
2018-09-11T00:52:06.646Z,1012.74
2018-09-11T00:53:06.667Z,1012.78
2018-09-11T00:54:06.748Z,1012.78
2018-09-11T00:55:06.736Z,1012.76
2018-09-11T00:56:06.741Z,1012.79
2018-09-11T00:57:06.779Z,1012.81
2018-09-11T00:58:06.771Z,1012.80
2018-09-11T00:59:06.791Z,1012.79
2018-09-11T01:00:06.823Z,1012.79
2018-09-11T01:01:06.846Z,1012.79
2018-09-11T01:02:06.882Z,1012.80
2018-09-11T01:03:06.885Z,1012.84
2018-09-11T01:04:06.911Z,1012.83
2018-09-11T01:05:06.927Z,1012.84
2018-09-11T01:06:06.947Z,1012.83
2018-09-11T01:07:06.967Z,1012.83
2018-09-11T01:08:07.040Z,1012.84
2018-09-11T01:09:07.027Z,1012.81
2018-09-11T01:10:07.084Z,1012.81
2018-09-11T01:11:07.049Z,1012.82
2018-09-11T01:12:07.072Z,1012.79
2018-09-11T01:13:07.108Z,1012.84
2018-09-11T01:14:07.112Z,1012.86
2018-09-11T01:15:07.142Z,1012.82
2018-09-11T01:16:07.166Z,1012.86
2018-09-11T01:17:07.174Z,1012.87
2018-09-11T01:18:07.196Z,1012.84
2018-09-11T01:19:07.233Z,1012.83
2018-09-11T01:20:07.238Z,1012.89
2018-09-11T01:21:07.272Z,1012.86
2018-09-11T01:22:07.283Z,1012.84
2018-09-11T01:23:07.317Z,1012.85
2018-09-11T01:24:07.340Z,1012.82
2018-09-11T01:25:07.341Z,1012.84
2018-09-11T01:26:07.380Z,1012.85
2018-09-11T01:27:07.398Z,1012.84
2018-09-11T01:28:07.414Z,1012.83
2018-09-11T01:29:07.436Z,1012.82
2018-09-11T01:30:07.446Z,1012.83
2018-09-11T01:31:07.464Z,1012.83
2018-09-11T01:32:07.488Z,1012.84
2018-09-11T01:33:07.532Z,1012.83
2018-09-11T01:34:07.539Z,1012.82
2018-09-11T01:35:07.550Z,1012.83
2018-09-11T01:36:07.571Z,1012.85
2018-09-11T01:37:07.609Z,1012.89
2018-09-11T01:38:07.613Z,1012.93
2018-09-11T01:39:07.634Z,1012.92
2018-09-11T01:40:07.655Z,1012.97
2018-09-11T01:41:07.679Z,1012.98
2018-09-11T01:42:07.713Z,1012.97
2018-09-11T01:43:07.731Z,1012.95
2018-09-11T01:44:07.741Z,1012.96
2018-09-11T01:45:07.760Z,1012.98
2018-09-11T01:46:07.782Z,1012.97
2018-09-11T01:47:07.814Z,1012.98
2018-09-11T01:48:07.814Z,1012.94
2018-09-11T01:49:07.846Z,1012.95
2018-09-11T01:50:07.884Z,1012.94
2018-09-11T01:51:07.912Z,1012.95
2018-09-11T01:52:07.923Z,1012.92
2018-09-11T01:53:07.931Z,1012.91
2018-09-11T01:54:07.951Z,1012.92
2018-09-11T01:55:07.986Z,1012.91
2018-09-11T01:56:08.008Z,1012.91
2018-09-11T01:57:08.034Z,1012.91
2018-09-11T01:58:08.038Z,1012.93
2018-09-11T01:59:08.074Z,1012.93
2018-09-11T02:00:08.098Z,1012.95
2018-09-11T02:01:08.101Z,1012.92
2018-09-11T02:02:08.136Z,1012.93
2018-09-11T02:03:08.154Z,1012.93
2018-09-11T02:04:08.180Z,1012.90
2018-09-11T02:05:08.204Z,1012.93
2018-09-11T02:06:08.197Z,1012.93
2018-09-11T02:07:08.244Z,1012.89
2018-09-11T02:08:08.264Z,1012.89
2018-09-11T02:09:08.262Z,1012.86
2018-09-11T02:10:08.296Z,1012.89
2018-09-11T02:11:08.315Z,1012.88
2018-09-11T02:12:08.346Z,1012.88
2018-09-11T02:13:08.372Z,1012.88
2018-09-11T02:14:08.390Z,1012.84
2018-09-11T02:15:08.409Z,1012.86
2018-09-11T02:16:08.423Z,1012.86
2018-09-11T02:17:08.454Z,1012.87
2018-09-11T02:18:08.466Z,1012.85
2018-09-11T02:19:08.503Z,1012.86
2018-09-11T02:20:08.554Z,1012.86
2018-09-11T02:21:08.543Z,1012.84
2018-09-11T02:22:08.542Z,1012.86
2018-09-11T02:23:08.574Z,1012.83
2018-09-11T02:24:08.606Z,1012.84
2018-09-11T02:25:08.606Z,1012.84
2018-09-11T02:26:08.639Z,1012.82
2018-09-11T02:27:08.676Z,1012.81
2018-09-11T02:28:08.697Z,1012.78
2018-09-11T02:29:08.718Z,1012.77
2018-09-11T02:30:08.728Z,1012.80
2018-09-11T02:31:08.734Z,1012.81
2018-09-11T02:32:08.758Z,1012.83
2018-09-11T02:33:08.810Z,1012.81
2018-09-11T02:34:08.825Z,1012.80
2018-09-11T02:35:09.565Z,1012.80
2018-09-11T02:36:08.857Z,1012.77
2018-09-11T02:37:08.871Z,1012.79
2018-09-11T02:38:08.890Z,1012.80
2018-09-11T02:39:08.923Z,1012.75
2018-09-11T02:40:08.958Z,1012.77
2018-09-11T02:41:08.979Z,1012.77
2018-09-11T02:42:08.976Z,1012.79
2018-09-11T02:43:09.024Z,1012.78
2018-09-11T02:44:09.018Z,1012.81
2018-09-11T02:45:09.052Z,1012.83
2018-09-11T02:46:09.076Z,1012.82
2018-09-11T02:47:09.107Z,1012.84
2018-09-11T02:48:09.118Z,1012.77
2018-09-11T02:49:09.188Z,1012.82
2018-09-11T02:50:09.163Z,1012.78
2018-09-11T02:51:09.201Z,1012.77
2018-09-11T02:52:09.211Z,1012.75
2018-09-11T02:53:09.225Z,1012.72
2018-09-11T02:54:09.264Z,1012.73
2018-09-11T02:55:09.279Z,1012.71
2018-09-11T02:56:09.307Z,1012.72
2018-09-11T02:57:09.317Z,1012.71
2018-09-11T02:58:10.076Z,1012.72
2018-09-11T02:59:09.367Z,1012.71
2018-09-11T03:00:09.381Z,1012.70
2018-09-11T03:01:09.427Z,1012.71
2018-09-11T03:02:09.425Z,1012.71
2018-09-11T03:03:09.450Z,1012.75
2018-09-11T03:04:09.454Z,1012.71
2018-09-11T03:05:09.502Z,1012.72
2018-09-11T03:06:09.521Z,1012.70
2018-09-11T03:07:09.545Z,1012.71
2018-09-11T03:08:09.557Z,1012.67
2018-09-11T03:09:09.593Z,1012.67
2018-09-11T03:10:09.617Z,1012.66
2018-09-11T03:11:09.621Z,1012.66
2018-09-11T03:12:09.644Z,1012.66
2018-09-11T03:13:09.707Z,1012.61
2018-09-11T03:14:09.688Z,1012.62
2018-09-11T03:15:09.719Z,1012.63
2018-09-11T03:16:09.743Z,1012.62
2018-09-11T03:17:09.755Z,1012.60
2018-09-11T03:18:09.789Z,1012.58
2018-09-11T03:19:09.796Z,1012.53
2018-09-11T03:20:09.833Z,1012.59
2018-09-11T03:21:09.845Z,1012.54
2018-09-11T03:22:09.864Z,1012.53
2018-09-11T03:23:09.884Z,1012.54
2018-09-11T03:24:09.907Z,1012.52
2018-09-11T03:25:09.942Z,1012.49
2018-09-11T03:26:09.963Z,1012.51
2018-09-11T03:27:09.976Z,1012.52
2018-09-11T03:28:09.997Z,1012.48
2018-09-11T03:29:10.011Z,1012.51
2018-09-11T03:30:10.051Z,1012.52
2018-09-11T03:31:10.061Z,1012.51
2018-09-11T03:32:10.083Z,1012.49
2018-09-11T03:33:10.116Z,1012.48
2018-09-11T03:34:10.141Z,1012.50
2018-09-11T03:35:10.136Z,1012.48
2018-09-11T03:36:10.185Z,1012.47
2018-09-11T03:37:10.208Z,1012.49
2018-09-11T03:38:10.217Z,1012.48
2018-09-11T03:39:10.236Z,1012.46
2018-09-11T03:40:10.275Z,1012.46
2018-09-11T03:41:10.278Z,1012.48
2018-09-11T03:42:10.304Z,1012.45
2018-09-11T03:43:10.326Z,1012.43
2018-09-11T03:44:10.382Z,1012.41
2018-09-11T03:45:10.387Z,1012.37
2018-09-11T03:46:10.409Z,1012.35
2018-09-11T03:47:10.427Z,1012.35
2018-09-11T03:48:10.435Z,1012.33
2018-09-11T03:49:10.475Z,1012.33
2018-09-11T03:50:10.497Z,1012.29
2018-09-11T03:51:10.503Z,1012.28
2018-09-11T03:52:10.522Z,1012.27
2018-09-11T03:53:10.559Z,1012.27
2018-09-11T03:54:10.577Z,1012.24
2018-09-11T03:55:10.593Z,1012.23
2018-09-11T03:56:10.654Z,1012.18
2018-09-11T03:57:10.635Z,1012.18
2018-09-11T03:58:10.709Z,1012.14
2018-09-11T03:59:10.742Z,1012.15
2018-09-11T04:00:10.702Z,1012.15
2018-09-11T04:01:10.742Z,1012.11
2018-09-11T04:02:10.766Z,1012.10
2018-09-11T04:03:10.772Z,1012.06
2018-09-11T04:04:10.662Z,1012.12
2018-09-11T04:05:10.838Z,1012.02
2018-09-11T04:06:10.863Z,1012.04
2018-09-11T04:07:10.819Z,1012.01
2018-09-11T04:08:10.923Z,1011.99
2018-09-11T04:09:10.894Z,1011.94
2018-09-11T04:10:10.938Z,1011.92
2018-09-11T04:11:10.955Z,1011.94
2018-09-11T04:12:10.965Z,1011.91
2018-09-11T04:13:10.991Z,1011.90
2018-09-11T04:14:11.024Z,1011.90
2018-09-11T04:15:11.033Z,1011.89
2018-09-11T04:16:11.064Z,1011.87
2018-09-11T04:17:11.077Z,1011.90
2018-09-11T04:18:11.097Z,1011.91
2018-09-11T04:19:11.108Z,1011.84
2018-09-11T04:20:11.142Z,1011.86
2018-09-11T04:21:11.156Z,1011.82
2018-09-11T04:22:11.186Z,1011.79
2018-09-11T04:23:11.224Z,1011.77
2018-09-11T04:24:11.245Z,1011.73
2018-09-11T04:25:11.254Z,1011.76
2018-09-11T04:26:11.267Z,1011.69
2018-09-11T04:27:11.294Z,1011.75
2018-09-11T04:28:11.319Z,1011.73
2018-09-11T04:29:11.358Z,1011.69
2018-09-11T04:30:11.365Z,1011.71
2018-09-11T04:31:11.375Z,1011.69
2018-09-11T04:32:11.414Z,1011.64
2018-09-11T04:33:11.464Z,1011.65
2018-09-11T04:34:11.455Z,1011.64
2018-09-11T04:35:11.487Z,1011.61
2018-09-11T04:36:11.563Z,1011.59
2018-09-11T04:37:11.520Z,1011.59
2018-09-11T04:38:11.574Z,1011.60
2018-09-11T04:39:11.553Z,1011.56
2018-09-11T04:40:11.592Z,1011.58
2018-09-11T04:41:11.627Z,1011.53
2018-09-11T04:42:11.630Z,1011.52
2018-09-11T04:43:11.729Z,1011.51
2018-09-11T04:44:11.666Z,1011.51
2018-09-11T04:45:11.699Z,1011.48
2018-09-11T04:46:11.733Z,1011.49
2018-09-11T04:47:11.749Z,1011.50
2018-09-11T04:48:11.778Z,1011.47
2018-09-11T04:49:11.794Z,1011.45
2018-09-11T04:50:11.816Z,1011.42
2018-09-11T04:51:11.827Z,1011.42
2018-09-11T04:52:11.861Z,1011.41
2018-09-11T04:53:11.891Z,1011.38
2018-09-11T04:54:11.893Z,1011.38
2018-09-11T04:55:11.922Z,1011.37
2018-09-11T04:56:11.977Z,1011.33
2018-09-11T04:57:11.961Z,1011.30
2018-09-11T04:58:11.997Z,1011.29
2018-09-11T04:59:12.018Z,1011.29
2018-09-11T05:00:12.015Z,1011.30
2018-09-11T05:01:12.062Z,1011.26
2018-09-11T05:02:12.071Z,1011.23
2018-09-11T05:03:12.111Z,1011.22
2018-09-11T05:04:12.117Z,1011.20
2018-09-11T05:05:12.148Z,1011.14
2018-09-11T05:06:12.159Z,1011.14
2018-09-11T05:07:12.195Z,1011.13
2018-09-11T05:08:12.201Z,1011.12
2018-09-11T05:09:12.225Z,1011.09
2018-09-11T05:10:12.265Z,1011.06
2018-09-11T05:11:12.270Z,1011.09
2018-09-11T05:12:12.304Z,1011.03
2018-09-11T05:13:12.328Z,1011.00
2018-09-11T05:14:12.338Z,1011.00
2018-09-11T05:15:12.357Z,1011.00
2018-09-11T05:16:12.393Z,1010.95
2018-09-11T05:17:12.419Z,1010.97
2018-09-11T05:18:12.427Z,1010.94
2018-09-11T05:19:12.522Z,1010.92
2018-09-11T05:20:12.470Z,1010.91
2018-09-11T05:21:12.506Z,1010.87
2018-09-11T05:22:12.526Z,1010.87
2018-09-11T05:23:12.551Z,1010.86
2018-09-11T05:24:12.577Z,1010.85
2018-09-11T05:25:12.583Z,1010.82
2018-09-11T05:26:12.606Z,1010.79
2018-09-11T05:27:12.647Z,1010.80
2018-09-11T05:28:12.654Z,1010.80
2018-09-11T05:29:12.662Z,1010.76
2018-09-11T05:30:12.714Z,1010.76
2018-09-11T05:31:12.734Z,1010.74
2018-09-11T05:32:12.741Z,1010.70
2018-09-11T05:33:12.773Z,1010.70
2018-09-11T05:34:12.787Z,1010.66
2018-09-11T05:35:12.805Z,1010.68
2018-09-11T05:36:12.841Z,1010.63
2018-09-11T05:37:12.870Z,1010.63
2018-09-11T05:38:12.895Z,1010.62
2018-09-11T05:39:13.010Z,1010.60
2018-09-11T05:40:12.923Z,1010.60
2018-09-11T05:41:12.947Z,1010.55
2018-09-11T05:42:12.966Z,1010.50
2018-09-11T05:43:13.005Z,1010.49
2018-09-11T05:44:13.012Z,1010.48
2018-09-11T05:45:13.051Z,1010.45
2018-09-11T05:46:13.061Z,1010.44
2018-09-11T05:47:13.147Z,1010.40
2018-09-11T05:48:13.114Z,1010.43
2018-09-11T05:49:13.136Z,1010.39
2018-09-11T05:50:13.163Z,1010.36
2018-09-11T05:51:13.170Z,1010.37
2018-09-11T05:52:13.206Z,1010.36
2018-09-11T05:53:13.217Z,1010.36
2018-09-11T05:54:13.237Z,1010.33
2018-09-11T05:55:13.319Z,1010.29
2018-09-11T05:56:13.281Z,1010.31
2018-09-11T05:57:13.319Z,1010.28
2018-09-11T05:58:13.344Z,1010.25
2018-09-11T05:59:13.354Z,1010.24
2018-09-11T06:00:13.373Z,1010.22
2018-09-11T06:01:13.387Z,1010.21
2018-09-11T06:02:13.424Z,1010.20
2018-09-11T06:03:13.440Z,1010.16
2018-09-11T06:04:13.478Z,1010.16
2018-09-11T06:05:13.528Z,1010.14
2018-09-11T06:06:13.511Z,1010.12
2018-09-11T06:07:13.549Z,1010.10
2018-09-11T06:08:13.556Z,1010.08
2018-09-11T06:09:13.577Z,1010.08
2018-09-11T06:10:13.614Z,1010.05
2018-09-11T06:11:13.640Z,1010.03
2018-09-11T06:12:13.649Z,1009.99
2018-09-11T06:13:13.672Z,1010.03
2018-09-11T06:14:13.693Z,1009.97
2018-09-11T06:15:13.724Z,1009.97
2018-09-11T06:16:13.735Z,1009.92
2018-09-11T06:17:13.748Z,1009.96
2018-09-11T06:18:13.784Z,1009.92
2018-09-11T06:19:13.805Z,1009.90
2018-09-11T06:20:13.845Z,1009.88
2018-09-11T06:21:13.867Z,1009.85
2018-09-11T06:22:13.888Z,1009.83
2018-09-11T06:23:13.902Z,1009.84
2018-09-11T06:24:13.931Z,1009.80
2018-09-11T06:25:13.944Z,1009.78
2018-09-11T06:26:13.969Z,1009.76
2018-09-11T06:27:13.994Z,1009.74
2018-09-11T06:28:14.001Z,1009.72
2018-09-11T06:29:14.128Z,1009.68
2018-09-11T06:30:14.060Z,1009.70
2018-09-11T06:31:14.080Z,1009.67
2018-09-11T06:32:14.104Z,1009.67
2018-09-11T06:33:14.128Z,1009.62
2018-09-11T06:34:14.196Z,1009.59
2018-09-11T06:35:14.211Z,1009.54
2018-09-11T06:36:14.196Z,1009.51
2018-09-11T06:37:14.236Z,1009.51
2018-09-11T06:38:14.243Z,1009.50
2018-09-11T06:39:14.253Z,1009.53
2018-09-11T06:40:14.338Z,1009.52
2018-09-11T06:41:14.341Z,1009.50
2018-09-11T06:42:14.322Z,1009.48
2018-09-11T06:43:14.376Z,1009.51
2018-09-11T06:44:14.379Z,1009.48
2018-09-11T06:45:14.414Z,1009.48
2018-09-11T06:46:14.427Z,1009.46
2018-09-11T06:47:14.469Z,1009.45
2018-09-11T06:48:14.474Z,1009.41
2018-09-11T06:49:14.513Z,1009.43
2018-09-11T06:50:14.521Z,1009.39
2018-09-11T06:51:14.544Z,1009.41
2018-09-11T06:52:14.576Z,1009.33
2018-09-11T06:53:14.577Z,1009.30
2018-09-11T06:54:14.612Z,1009.26
2018-09-11T06:55:14.635Z,1009.28
2018-09-11T06:56:14.685Z,1009.27
2018-09-11T06:57:14.699Z,1009.23
2018-09-11T06:58:14.706Z,1009.22
2018-09-11T06:59:14.737Z,1009.22
2018-09-11T07:00:14.765Z,1009.21
2018-09-11T07:01:14.779Z,1009.21
2018-09-11T07:02:14.800Z,1009.21
2018-09-11T07:03:14.822Z,1009.19
2018-09-11T07:04:14.857Z,1009.19
2018-09-11T07:05:14.870Z,1009.16
2018-09-11T07:06:14.911Z,1009.16
2018-09-11T07:07:14.906Z,1009.12
2018-09-11T07:08:14.969Z,1009.11
2018-09-11T07:09:14.964Z,1009.11
2018-09-11T07:10:15.002Z,1009.08
2018-09-11T07:11:15.010Z,1009.10
2018-09-11T07:12:15.045Z,1009.10
2018-09-11T07:13:15.059Z,1009.10
2018-09-11T07:14:15.070Z,1009.07
2018-09-11T07:15:15.118Z,1009.00
2018-09-11T07:16:15.127Z,1009.00
2018-09-11T07:17:15.176Z,1009.03
2018-09-11T07:18:15.191Z,1008.98
2018-09-11T07:19:15.215Z,1008.95
2018-09-11T07:20:15.460Z,1008.92
2018-09-11T07:21:15.245Z,1008.92
2018-09-11T07:22:15.259Z,1008.89
2018-09-11T07:23:15.304Z,1008.89
2018-09-11T07:24:15.306Z,1008.88
2018-09-11T07:25:15.357Z,1008.85
2018-09-11T07:26:15.460Z,1008.84
2018-09-11T07:27:15.387Z,1008.79
2018-09-11T07:28:15.413Z,1008.77
2018-09-11T07:29:15.425Z,1008.78
2018-09-11T07:30:15.480Z,1008.72
2018-09-11T07:31:15.490Z,1008.74
2018-09-11T07:32:15.531Z,1008.70
2018-09-11T07:33:15.548Z,1008.65
2018-09-11T07:34:15.569Z,1008.69
2018-09-11T07:35:15.564Z,1008.65
2018-09-11T07:36:15.620Z,1008.63
2018-09-11T07:37:15.639Z,1008.63
2018-09-11T07:38:15.637Z,1008.60
2018-09-11T07:39:15.673Z,1008.58
2018-09-11T07:40:15.702Z,1008.56
2018-09-11T07:41:15.731Z,1008.49
2018-09-11T07:42:15.744Z,1008.50
2018-09-11T07:43:15.832Z,1008.49
2018-09-11T07:44:15.791Z,1008.43
2018-09-11T07:45:15.814Z,1008.43
2018-09-11T07:46:15.849Z,1008.42
2018-09-11T07:47:15.862Z,1008.42
2018-09-11T07:48:15.896Z,1008.41
2018-09-11T07:49:15.924Z,1008.42
2018-09-11T07:50:15.935Z,1008.39
2018-09-11T07:51:15.944Z,1008.38
2018-09-11T07:52:15.980Z,1008.36
2018-09-11T07:53:16.021Z,1008.37
2018-09-11T07:54:16.030Z,1008.35
2018-09-11T07:55:16.059Z,1008.34
2018-09-11T07:56:16.076Z,1008.34
2018-09-11T07:57:16.103Z,1008.30
2018-09-11T07:58:16.117Z,1008.33
2018-09-11T07:59:16.148Z,1008.31
2018-09-11T08:00:16.174Z,1008.33
2018-09-11T08:01:16.194Z,1008.29
2018-09-11T08:02:16.234Z,1008.29
2018-09-11T08:03:16.245Z,1008.27
2018-09-11T08:04:16.268Z,1008.20
2018-09-11T08:05:16.296Z,1008.20
2018-09-11T08:06:16.322Z,1008.19
2018-09-11T08:07:16.350Z,1008.19
2018-09-11T08:08:16.366Z,1008.20
2018-09-11T08:09:16.374Z,1008.14
2018-09-11T08:10:16.405Z,1008.15
2018-09-11T08:11:16.434Z,1008.17
2018-09-11T08:12:16.555Z,1008.18
2018-09-11T08:13:16.493Z,1008.17
2018-09-11T08:14:16.528Z,1008.12
2018-09-11T08:15:16.547Z,1008.16
2018-09-11T08:16:16.570Z,1008.15
2018-09-11T08:17:16.595Z,1008.17
2018-09-11T08:18:16.617Z,1008.16
2018-09-11T08:19:16.678Z,1008.09
2018-09-11T08:20:16.666Z,1008.07
2018-09-11T08:21:16.663Z,1008.06
2018-09-11T08:22:16.711Z,1008.11
2018-09-11T08:23:16.721Z,1008.10
2018-09-11T08:24:16.746Z,1008.05
2018-09-11T08:25:16.771Z,1008.01
2018-09-11T08:26:16.806Z,1008.03
2018-09-11T08:27:16.827Z,1008.02
2018-09-11T08:28:16.845Z,1008.00
2018-09-11T08:29:16.925Z,1008.09
2018-09-11T08:30:16.907Z,1008.11
2018-09-11T08:31:16.931Z,1008.26
2018-09-11T08:32:16.939Z,1008.30
2018-09-11T08:33:16.980Z,1008.26
2018-09-11T08:34:17.003Z,1008.17
2018-09-11T08:35:17.784Z,1008.19
2018-09-11T08:36:17.049Z,1008.20
2018-09-11T08:37:17.082Z,1008.12
2018-09-11T08:38:17.091Z,1008.06
2018-09-11T08:39:17.112Z,1008.22
2018-09-11T08:40:17.149Z,1008.15
2018-09-11T08:41:17.176Z,1008.11
2018-09-11T08:42:17.186Z,1008.08
2018-09-11T08:43:17.210Z,1008.10
2018-09-11T08:44:17.236Z,1008.03
2018-09-11T08:45:17.300Z,1007.98
2018-09-11T08:46:17.286Z,1008.03
2018-09-11T08:47:17.327Z,1008.09
2018-09-11T08:48:17.353Z,1008.11
2018-09-11T08:49:17.351Z,1008.05
2018-09-11T08:50:17.405Z,1008.04
2018-09-11T08:51:17.414Z,1008.02
2018-09-11T08:52:17.469Z,1008.01
2018-09-11T08:53:17.475Z,1008.03
2018-09-11T08:54:17.489Z,1008.06
2018-09-11T08:55:17.517Z,1008.04
2018-09-11T08:56:17.541Z,1008.02
2018-09-11T08:57:17.567Z,1008.03
2018-09-11T08:58:17.609Z,1008.05
2018-09-11T08:59:17.634Z,1008.03
2018-09-11T09:00:17.646Z,1008.01
2018-09-11T09:01:17.683Z,1008.02
2018-09-11T09:02:17.704Z,1007.96
2018-09-11T09:03:17.723Z,1007.97
2018-09-11T09:04:17.761Z,1007.95
2018-09-11T09:05:17.769Z,1007.94
2018-09-11T09:06:17.796Z,1007.92
2018-09-11T09:07:17.830Z,1007.90
2018-09-11T09:08:17.859Z,1007.90
2018-09-11T09:09:17.871Z,1007.88
2018-09-11T09:10:17.911Z,1007.91
2018-09-11T09:11:17.908Z,1007.86
2018-09-11T09:12:17.945Z,1007.86
2018-09-11T09:13:17.969Z,1007.85
2018-09-11T09:14:17.995Z,1007.87
2018-09-11T09:15:18.019Z,1007.89
2018-09-11T09:16:18.032Z,1007.83
2018-09-11T09:17:18.084Z,1007.87
2018-09-11T09:18:18.094Z,1007.84
2018-09-11T09:19:18.119Z,1007.81
2018-09-11T09:20:18.159Z,1007.81
2018-09-11T09:21:18.183Z,1007.80
2018-09-11T09:22:18.182Z,1007.79
2018-09-11T09:23:18.216Z,1007.78
2018-09-11T09:24:18.258Z,1007.76
2018-09-11T09:25:18.281Z,1007.77
2018-09-11T09:26:18.288Z,1007.79
2018-09-11T09:27:18.357Z,1007.75
2018-09-11T09:28:18.407Z,1007.75
2018-09-11T09:29:18.363Z,1007.72
2018-09-11T09:30:18.383Z,1007.77
2018-09-11T09:31:18.397Z,1007.74
2018-09-11T09:32:18.435Z,1007.74
2018-09-11T09:33:18.445Z,1007.71
2018-09-11T09:34:18.500Z,1007.69
2018-09-11T09:35:18.520Z,1007.70
2018-09-11T09:36:18.530Z,1007.70
2018-09-11T09:37:18.565Z,1007.69
2018-09-11T09:38:18.595Z,1007.67
2018-09-11T09:39:18.634Z,1007.65
2018-09-11T09:40:18.694Z,1007.66
2018-09-11T09:41:18.652Z,1007.63
2018-09-11T09:42:18.685Z,1007.59
2018-09-11T09:43:18.683Z,1007.59
2018-09-11T09:44:18.737Z,1007.58
2018-09-11T09:45:18.744Z,1007.59
2018-09-11T09:46:18.766Z,1007.56
2018-09-11T09:47:18.780Z,1007.57
2018-09-11T09:48:18.824Z,1007.58
2018-09-11T09:49:18.848Z,1007.57
2018-09-11T09:50:18.849Z,1007.61
2018-09-11T09:51:18.900Z,1007.58
2018-09-11T09:52:18.911Z,1007.58
2018-09-11T09:53:18.947Z,1007.63
2018-09-11T09:54:18.972Z,1007.65
2018-09-11T09:55:18.980Z,1007.65
2018-09-11T09:56:19.017Z,1007.66
2018-09-11T09:58:19.312Z,1007.68
2018-09-11T09:59:19.314Z,1007.66
2018-09-11T10:00:19.338Z,1007.72
2018-09-11T10:01:19.365Z,1007.70
2018-09-11T10:03:19.883Z,1007.72
2018-09-11T10:04:20.993Z,1007.75
2018-09-11T10:05:19.958Z,1007.76
2018-09-11T10:06:19.956Z,1007.72
2018-09-11T10:07:20.041Z,1007.79
2018-09-11T10:08:21.066Z,1007.81
2018-09-11T10:09:21.039Z,1007.82
2018-09-11T10:10:20.675Z,1007.82
2018-09-11T10:11:20.138Z,1007.80
2018-09-11T10:12:20.121Z,1007.81
2018-09-11T10:13:21.194Z,1007.80
2018-09-11T10:14:21.230Z,1007.82
2018-09-11T10:15:20.278Z,1007.85
2018-09-11T10:16:20.256Z,1007.81
2018-09-11T10:17:20.271Z,1007.80
2018-09-11T10:18:21.288Z,1007.78
2018-09-11T10:19:21.298Z,1007.80
2018-09-11T10:20:20.314Z,1007.80
2018-09-11T10:21:20.338Z,1007.79
2018-09-11T10:22:20.359Z,1007.80
2018-09-11T10:23:21.390Z,1007.79
2018-09-11T10:24:21.416Z,1007.77
2018-09-11T10:25:20.453Z,1007.80
2018-09-11T10:26:20.487Z,1007.79
2018-09-11T10:27:21.714Z,1007.77
2018-09-11T10:28:21.529Z,1007.77
2018-09-11T10:29:21.569Z,1007.77
2018-09-11T10:30:20.586Z,1007.74
2018-09-11T10:31:20.564Z,1007.79
2018-09-11T10:32:20.584Z,1007.73
2018-09-11T10:33:21.661Z,1007.75
2018-09-11T10:34:21.678Z,1007.74
2018-09-11T10:35:20.693Z,1007.75
2018-09-11T10:36:20.688Z,1007.78
2018-09-11T10:37:20.709Z,1007.76
2018-09-11T10:38:21.775Z,1007.76
2018-09-11T10:39:21.842Z,1007.77
2018-09-11T10:40:20.775Z,1007.72
2018-09-11T10:41:21.718Z,1007.75
2018-09-11T10:42:20.847Z,1007.75
2018-09-11T10:43:21.894Z,1007.72
2018-09-11T10:44:21.874Z,1007.72
2018-09-11T10:45:20.889Z,1007.70
2018-09-11T10:46:20.953Z,1007.74
2018-09-11T10:47:20.966Z,1007.72
2018-09-11T10:48:21.995Z,1007.74
2018-09-11T10:49:21.970Z,1007.79
2018-09-11T10:50:21.024Z,1007.78
2018-09-11T10:51:21.031Z,1007.79
2018-09-11T10:52:21.028Z,1007.79
2018-09-11T10:53:22.112Z,1007.78
2018-09-11T10:54:22.111Z,1007.79
2018-09-11T10:55:21.112Z,1007.82
2018-09-11T10:56:21.175Z,1007.84
2018-09-11T10:57:21.145Z,1007.85
2018-09-11T10:58:22.246Z,1007.87
2018-09-11T10:59:22.219Z,1007.86
2018-09-11T11:00:21.300Z,1007.88
2018-09-11T11:01:21.292Z,1007.85
2018-09-11T11:02:21.270Z,1007.91
2018-09-11T11:03:22.310Z,1007.95
2018-09-11T11:04:22.331Z,1007.94
2018-09-11T11:05:21.337Z,1007.99
2018-09-11T11:06:21.408Z,1008.00
2018-09-11T11:07:21.524Z,1007.99
2018-09-11T11:08:22.957Z,1008.02
2018-09-11T11:09:22.448Z,1007.99
2018-09-11T11:10:21.491Z,1008.01
2018-09-11T11:11:21.502Z,1008.04
2018-09-11T11:12:21.507Z,1008.04
2018-09-11T11:13:23.467Z,1008.09
2018-09-11T11:14:22.647Z,1008.10
2018-09-11T11:15:21.600Z,1008.11
2018-09-11T11:16:21.633Z,1008.12
2018-09-11T11:17:21.617Z,1008.09
2018-09-11T11:18:22.706Z,1008.14
